Time;durP1;ratioP1;P1;durP2;ratioP2;P2;SDS_P1;SDS_P2;PMS_P1;PMS_P2;Temp;Humidity;BMP_temperature;BMP_pressure;BME280_temperature;BME280_humidity;BME280_pressure;Samples;Min_cycle;Max_cycle;Signal;HPM_P1;HPM_P2
2023/09/11 00:00:19;;;;;;;5.90;5.40;;;;;25.40;100386.00;;;;2097410;28;20693;-68
2023/09/11 00:01:20;;;;;;;5.20;4.80;;;;;25.40;100387.00;;;;2086053;28;20459;-68
2023/09/11 00:02:20;;;;;;;6.63;6.03;;;;;25.40;100386.00;;;;2097440;28;20235;-68
2023/09/11 00:03:20;;;;;;;6.40;5.80;;;;;25.40;100381.00;;;;2097267;28;20215;-68
2023/09/11 00:04:21;;;;;;;6.50;6.00;;;;;25.40;100385.00;;;;2096533;28;20278;-68
2023/09/11 00:05:22;;;;;;;6.60;6.10;;;;;25.40;100382.00;;;;2097258;28;20208;-68
2023/09/11 00:06:22;;;;;;;6.30;5.70;;;;;25.40;100374.00;;;;2088361;28;20289;-68
2023/09/11 00:07:24;;;;;;;6.57;5.97;;;;;25.40;100377.00;;;;2097202;28;20451;-68
2023/09/11 00:08:24;;;;;;;6.33;5.80;;;;;25.40;100370.00;;;;2096864;28;20216;-68
2023/09/11 00:09:25;;;;;;;5.80;5.40;;;;;25.40;100374.00;;;;2096527;28;20450;-68
2023/09/11 00:10:25;;;;;;;6.23;5.77;;;;;25.40;100373.00;;;;2097363;28;20216;-68
2023/09/11 00:11:26;;;;;;;6.53;5.80;;;;;25.40;100369.00;;;;2086256;28;20575;-68
2023/09/11 00:12:26;;;;;;;5.97;5.47;;;;;25.40;100370.00;;;;2097169;28;20750;-68
2023/09/11 00:13:27;;;;;;;6.63;5.93;;;;;25.40;100361.00;;;;2096671;28;20220;-68
2023/09/11 00:14:27;;;;;;;6.67;6.13;;;;;25.40;100369.00;;;;2097269;28;20228;-68
2023/09/11 00:15:32;;;;;;;6.60;6.00;;;;;25.40;100365.00;;;;2097225;28;20243;-68
2023/09/11 00:16:32;;;;;;;6.20;5.70;;;;;25.40;100363.00;;;;2096109;28;20577;-68
2023/09/11 00:17:33;;;;;;;6.20;5.70;;;;;25.40;100365.00;;;;2097257;28;20531;-68
2023/09/11 00:18:33;;;;;;;6.30;5.80;;;;;25.40;100363.00;;;;2086926;28;20213;-68
2023/09/11 00:19:33;;;;;;;6.77;6.27;;;;;25.40;100365.00;;;;2088235;28;20223;-68
2023/09/11 00:20:34;;;;;;;6.50;6.00;;;;;25.40;100365.00;;;;2086301;28;20219;-68
2023/09/11 00:21:34;;;;;;;6.17;5.67;;;;;25.40;100360.00;;;;2096999;28;20231;-68
2023/09/11 00:22:34;;;;;;;6.70;6.20;;;;;25.40;100364.00;;;;2098613;28;20231;-68
2023/09/11 00:23:35;;;;;;;5.87;5.37;;;;;25.40;100364.00;;;;2096464;28;20764;-68
2023/09/11 00:24:35;;;;;;;6.70;6.10;;;;;25.40;100363.00;;;;2097244;28;20284;-68
2023/09/11 00:25:35;;;;;;;6.47;5.97;;;;;25.40;100361.00;;;;2086224;28;20212;-68
2023/09/11 00:26:36;;;;;;;7.20;5.80;;;;;25.40;100362.00;;;;2092774;28;20600;-68
2023/09/11 00:27:37;;;;;;;5.70;5.23;;;;;25.40;100356.00;;;;2096189;28;20678;-68
2023/09/11 00:28:37;;;;;;;6.10;5.60;;;;;25.40;100361.00;;;;2096743;28;20228;-68
2023/09/11 00:29:37;;;;;;;5.67;5.27;;;;;25.40;100349.00;;;;2096851;28;20457;-68
2023/09/11 00:30:38;;;;;;;6.80;6.10;;;;;25.40;100356.00;;;;2086332;28;20200;-68
2023/09/11 00:31:38;;;;;;;6.17;5.67;;;;;25.40;100358.00;;;;2096956;28;20670;-68
2023/09/11 00:32:38;;;;;;;6.00;5.50;;;;;25.40;100358.00;;;;2095672;28;20218;-68
2023/09/11 00:33:39;;;;;;;6.13;5.63;;;;;25.40;100360.00;;;;2099304;28;20208;-68
2023/09/11 00:34:39;;;;;;;5.60;5.10;;;;;25.40;100368.00;;;;2100833;28;20250;-68
2023/09/11 00:35:43;;;;;;;6.50;5.97;;;;;25.40;100353.00;;;;2085381;28;20232;-68
2023/09/11 00:36:44;;;;;;;5.60;5.20;;;;;25.40;100356.00;;;;2086933;28;20216;-68
2023/09/11 00:37:44;;;;;;;6.20;5.80;;;;;25.40;100358.00;;;;2085643;28;20459;-68
2023/09/11 00:38:47;;;;;;;5.80;5.40;;;;;25.40;100359.00;;;;2079906;28;20198;-68
2023/09/11 00:39:47;;;;;;;6.23;5.73;;;;;25.40;100357.00;;;;2080250;28;20198;-68
2023/09/11 00:40:48;;;;;;;6.00;5.50;;;;;25.40;100357.00;;;;2090328;28;20491;-68
2023/09/11 00:41:48;;;;;;;6.33;5.83;;;;;25.40;100351.00;;;;2098960;28;20598;-68
2023/09/11 00:42:48;;;;;;;5.77;5.27;;;;;25.40;100346.00;;;;2100959;28;20821;-68
2023/09/11 00:43:49;;;;;;;5.30;4.90;;;;;25.40;100355.00;;;;2096162;28;20200;-68
2023/09/11 00:44:49;;;;;;;6.60;6.07;;;;;25.40;100350.00;;;;2098277;28;20223;-68
2023/09/11 00:45:50;;;;;;;6.50;5.90;;;;;25.40;100352.00;;;;2090522;28;20225;-68
2023/09/11 00:46:51;;;;;;;6.73;6.23;;;;;25.40;100354.00;;;;2087227;28;20599;-68
2023/09/11 00:47:51;;;;;;;6.23;5.73;;;;;25.40;100350.00;;;;2087950;28;20538;-68
2023/09/11 00:48:52;;;;;;;6.30;5.80;;;;;25.40;100354.00;;;;2090398;28;20201;-68
2023/09/11 00:49:52;;;;;;;6.10;5.70;;;;;25.40;100344.00;;;;2080871;28;20576;-68
2023/09/11 00:50:54;;;;;;;6.33;5.83;;;;;25.40;100346.00;;;;2065011;28;20218;-68
2023/09/11 00:51:54;;;;;;;5.60;5.20;;;;;25.40;100357.00;;;;2077892;28;20718;-68
2023/09/11 00:52:54;;;;;;;6.17;5.57;;;;;25.40;100353.00;;;;2075915;28;20460;-68
2023/09/11 00:53:55;;;;;;;6.10;5.60;;;;;25.40;100343.00;;;;2071348;28;20234;-68
2023/09/11 00:54:55;;;;;;;6.07;5.60;;;;;25.40;100348.00;;;;2079851;28;20259;-68
2023/09/11 00:55:55;;;;;;;6.33;5.83;;;;;25.40;100350.00;;;;2077281;28;20256;-68
2023/09/11 00:56:56;;;;;;;6.53;5.93;;;;;25.40;100349.00;;;;2096843;28;20208;-68
2023/09/11 00:57:56;;;;;;;6.30;5.80;;;;;25.40;100342.00;;;;2086830;28;20232;-68
2023/09/11 00:58:56;;;;;;;6.07;5.57;;;;;25.40;100349.00;;;;2088222;28;20523;-68
2023/09/11 00:59:57;;;;;;;6.20;5.70;;;;;25.40;100350.00;;;;2087775;28;20300;-68
2023/09/11 01:00:57;;;;;;;6.70;6.20;;;;;25.40;100349.00;;;;2075115;28;20217;-68
2023/09/11 01:01:57;;;;;;;6.67;6.17;;;;;25.40;100347.00;;;;2090791;28;20586;-68
2023/09/11 01:02:58;;;;;;;6.03;5.53;;;;;25.30;100344.00;;;;2083687;28;20741;-68
2023/09/11 01:03:58;;;;;;;6.03;5.53;;;;;25.30;100345.00;;;;2080297;28;20224;-68
2023/09/11 01:04:59;;;;;;;6.97;6.37;;;;;25.30;100314.00;;;;2079879;28;20213;-68
2023/09/11 01:05:59;;;;;;;5.80;5.30;;;;;25.40;100342.00;;;;2070530;28;20309;-68
2023/09/11 01:06:59;;;;;;;6.00;5.60;;;;;25.40;100347.00;;;;2078640;28;20332;-68
2023/09/11 01:08:00;;;;;;;6.30;5.80;;;;;25.40;100344.00;;;;2071136;28;20229;-68
2023/09/11 01:09:01;;;;;;;6.33;5.83;;;;;25.40;100341.00;;;;2078999;28;20241;-68
2023/09/11 01:10:06;;;;;;;5.90;5.50;;;;;25.30;100344.00;;;;2090263;28;20272;-68
2023/09/11 01:11:06;;;;;;;6.65;6.15;;;;;25.40;100336.00;;;;2070478;28;20472;-68
2023/09/11 01:12:07;;;;;;;6.27;5.77;;;;;25.40;100336.00;;;;2093101;28;20223;-68
2023/09/11 01:13:07;;;;;;;6.30;5.80;;;;;25.40;100341.00;;;;2095852;28;20227;-68
2023/09/11 01:14:07;;;;;;;6.40;5.80;;;;;25.40;100346.00;;;;2095126;28;21938;-68
2023/09/11 01:15:08;;;;;;;6.70;6.13;;;;;25.40;100335.00;;;;2096876;28;20318;-68
2023/09/11 01:16:14;;;;;;;6.30;5.90;;;;;25.30;100339.00;;;;2076068;28;20213;-68
2023/09/11 01:17:46;;;;;;;6.07;5.60;;;;;25.40;100332.00;;;;2072628;28;20229;-68
2023/09/11 01:19:08;;;;;;;6.15;5.65;;;;;25.30;100339.00;;;;2080829;28;20436;-68
2023/09/11 01:20:38;;;;;;;5.97;5.57;;;;;25.30;100335.00;;;;2090682;28;20216;-68
2023/09/11 01:21:51;;;;;;;6.57;6.07;;;;;25.30;100338.00;;;;2081391;28;20452;-68
2023/09/11 01:23:08;;;;;;;5.70;5.30;;;;;25.40;100337.00;;;;2079335;28;20503;-68
2023/09/11 01:24:16;;;;;;;6.03;5.43;;;;;25.30;100335.00;;;;2087772;28;20266;-68
2023/09/11 01:25:20;;;;;;;6.30;5.70;;;;;25.40;100331.00;;;;2087020;28;20562;-68
2023/09/11 01:27:05;;;;;;;6.50;5.90;;;;;25.30;100334.00;;;;2077616;28;20459;-68
2023/09/11 01:28:26;;;;;;;6.60;6.00;;;;;25.30;100335.00;;;;2081362;28;20976;-68
2023/09/11 01:29:26;;;;;;;5.63;5.13;;;;;25.40;100335.00;;;;2094461;28;20454;-68
2023/09/11 01:30:27;;;;;;;6.83;6.33;;;;;25.30;100337.00;;;;2088294;28;20578;-68
2023/09/11 01:31:27;;;;;;;6.53;6.03;;;;;25.30;100333.00;;;;2062742;28;20296;-68
2023/09/11 01:32:27;;;;;;;6.33;5.83;;;;;25.30;100332.00;;;;2083458;28;20224;-68
2023/09/11 01:33:28;;;;;;;6.33;5.83;;;;;25.30;100335.00;;;;2084000;28;20212;-68
2023/09/11 01:34:28;;;;;;;6.10;5.60;;;;;25.30;100333.00;;;;2095931;28;20593;-68
2023/09/11 01:35:28;;;;;;;6.37;5.77;;;;;25.30;100331.00;;;;2096669;28;21023;-68
2023/09/11 01:36:29;;;;;;;6.53;6.03;;;;;25.30;100333.00;;;;2086346;28;20774;-68
2023/09/11 01:37:31;;;;;;;5.90;5.40;;;;;25.30;100335.00;;;;2095698;28;20700;-68
2023/09/11 01:38:31;;;;;;;6.80;6.25;;;;;25.30;100337.00;;;;2096272;28;20864;-68
2023/09/11 01:39:31;;;;;;;6.20;5.70;;;;;25.30;100330.00;;;;2095757;28;20225;-68
2023/09/11 01:40:33;;;;;;;5.93;5.43;;;;;25.40;100319.00;;;;2064517;28;20214;-68
2023/09/11 01:41:39;;;;;;;6.13;5.63;;;;;25.30;100324.00;;;;2062475;28;20292;-68
2023/09/11 01:42:43;;;;;;;5.93;5.43;;;;;25.30;100326.00;;;;2073079;28;20994;-68
2023/09/11 01:43:44;;;;;;;6.10;5.60;;;;;25.30;100311.00;;;;2079488;28;20480;-68
2023/09/11 01:44:45;;;;;;;5.97;5.50;;;;;25.30;100314.00;;;;2071616;28;20469;-68
2023/09/11 01:45:45;;;;;;;6.17;5.67;;;;;25.30;100321.00;;;;2082748;28;20789;-68
2023/09/11 01:46:45;;;;;;;6.27;5.77;;;;;25.30;100324.00;;;;2087330;28;20464;-68
2023/09/11 01:47:47;;;;;;;6.20;5.70;;;;;25.30;100320.00;;;;2082547;28;20235;-68
2023/09/11 01:48:47;;;;;;;5.80;5.30;;;;;25.30;100266.00;;;;2087077;28;20216;-68
2023/09/11 01:49:48;;;;;;;6.00;5.50;;;;;25.30;100331.00;;;;2089015;28;20516;-68
2023/09/11 01:50:48;;;;;;;6.03;5.47;;;;;25.30;100311.00;;;;2079455;28;20205;-68
2023/09/11 01:51:50;;;;;;;6.93;6.30;;;;;25.30;100318.00;;;;2075710;28;20851;-68
2023/09/11 01:52:51;;;;;;;6.57;5.97;;;;;25.30;100266.00;;;;2082080;28;20292;-68
2023/09/11 01:53:51;;;;;;;6.20;5.70;;;;;25.30;100316.00;;;;2078320;28;20465;-68
2023/09/11 01:54:51;;;;;;;6.27;5.77;;;;;25.30;100320.00;;;;2090985;28;20618;-68
2023/09/11 01:55:51;;;;;;;7.20;6.20;;;;;25.30;100315.00;;;;2080963;28;20790;-68
2023/09/11 01:56:52;;;;;;;6.37;5.87;;;;;25.30;100331.00;;;;2081177;28;20616;-68
2023/09/11 01:57:52;;;;;;;5.77;5.27;;;;;25.20;100294.00;;;;2078652;28;20741;-68
2023/09/11 01:58:55;;;;;;;6.13;5.63;;;;;25.30;100317.00;;;;2087205;28;20209;-68
2023/09/11 01:59:55;;;;;;;6.80;6.20;;;;;25.30;100311.00;;;;2095666;28;20303;-68
2023/09/11 02:00:56;;;;;;;6.20;5.70;;;;;25.30;100321.00;;;;2084488;28;20224;-68
2023/09/11 02:01:56;;;;;;;6.10;5.60;;;;;25.30;100316.00;;;;2095906;28;20277;-68
2023/09/11 02:02:57;;;;;;;6.47;5.97;;;;;25.30;100317.00;;;;2096496;28;20215;-68
2023/09/11 02:03:57;;;;;;;6.50;6.00;;;;;25.30;100317.00;;;;2096438;28;20196;-68
2023/09/11 02:04:58;;;;;;;6.27;5.77;;;;;25.30;100314.00;;;;2093688;28;20222;-68
2023/09/11 02:05:58;;;;;;;5.53;4.97;;;;;25.30;100323.00;;;;2085765;28;20307;-68
2023/09/11 02:06:58;;;;;;;6.00;5.40;;;;;25.30;100313.00;;;;2095455;28;20236;-68
2023/09/11 02:07:59;;;;;;;6.17;5.67;;;;;25.30;100275.00;;;;2095713;28;20227;-68
2023/09/11 02:08:59;;;;;;;6.67;6.07;;;;;25.30;100317.00;;;;2096317;28;20216;-68
2023/09/11 02:09:59;;;;;;;6.07;5.57;;;;;25.30;100310.00;;;;2095792;28;20216;-68
2023/09/11 02:10:59;;;;;;;6.07;5.50;;;;;25.30;100317.00;;;;2082408;28;20239;-68
2023/09/11 02:12:00;;;;;;;6.40;5.90;;;;;25.30;100318.00;;;;2080573;28;20221;-68
2023/09/11 02:13:00;;;;;;;6.43;5.93;;;;;25.30;100320.00;;;;2091083;28;20243;-68
2023/09/11 02:14:00;;;;;;;6.17;5.67;;;;;25.30;100319.00;;;;2096976;28;20208;-68
2023/09/11 02:15:01;;;;;;;6.10;5.60;;;;;25.30;100280.00;;;;2099592;28;20265;-68
2023/09/11 02:16:01;;;;;;;6.83;6.20;;;;;25.30;100312.00;;;;2090063;28;20215;-68
2023/09/11 02:17:02;;;;;;;6.53;6.03;;;;;25.30;100321.00;;;;2095557;28;20232;-68
2023/09/11 02:18:03;;;;;;;6.57;6.07;;;;;25.30;100307.00;;;;2096120;28;20307;-68
2023/09/11 02:19:03;;;;;;;6.13;5.70;;;;;25.10;100319.00;;;;2095853;28;20219;-68
2023/09/11 02:20:04;;;;;;;5.90;5.40;;;;;25.30;100314.00;;;;2096215;28;20204;-68
2023/09/11 02:21:05;;;;;;;6.57;5.97;;;;;25.30;100311.00;;;;2085359;28;20212;-68
2023/09/11 02:22:05;;;;;;;5.77;5.30;;;;;25.30;100313.00;;;;2096121;28;20218;-68
2023/09/11 02:23:06;;;;;;;6.43;5.90;;;;;25.30;100308.00;;;;2095383;28;20470;-68
2023/09/11 02:24:06;;;;;;;6.43;5.93;;;;;25.30;100301.00;;;;2095682;28;20212;-68
2023/09/11 02:25:07;;;;;;;6.80;6.20;;;;;25.30;100314.00;;;;2096284;28;20215;-68
2023/09/11 02:26:07;;;;;;;6.50;6.00;;;;;25.30;100310.00;;;;2084644;28;20239;-68
2023/09/11 02:27:08;;;;;;;6.60;6.00;;;;;25.30;100304.00;;;;2096126;28;20223;-68
2023/09/11 02:28:08;;;;;;;6.10;5.60;;;;;25.30;100318.00;;;;2086841;28;20229;-68
2023/09/11 02:29:08;;;;;;;6.33;5.73;;;;;25.30;100308.00;;;;2089797;28;20240;-68
2023/09/11 02:30:09;;;;;;;6.60;6.00;;;;;25.30;100295.00;;;;2095185;28;20255;-68
2023/09/11 02:31:09;;;;;;;7.03;6.50;;;;;25.30;100305.00;;;;2085599;28;20718;-68
2023/09/11 02:32:10;;;;;;;6.30;5.80;;;;;25.30;100296.00;;;;2093597;28;20208;-68
2023/09/11 02:33:10;;;;;;;6.40;5.90;;;;;25.30;100303.00;;;;2093786;28;20227;-68
2023/09/11 02:34:10;;;;;;;6.20;5.70;;;;;25.30;100299.00;;;;2095507;28;20222;-68
2023/09/11 02:35:11;;;;;;;6.23;5.63;;;;;25.30;100303.00;;;;2097278;28;20216;-68
2023/09/11 02:36:11;;;;;;;5.40;5.00;;;;;25.30;100300.00;;;;2088345;28;20222;-68
2023/09/11 02:37:11;;;;;;;6.43;5.90;;;;;25.30;100310.00;;;;2095314;28;20215;-68
2023/09/11 02:38:12;;;;;;;6.40;5.80;;;;;25.30;100303.00;;;;2095650;28;20224;-68
2023/09/11 02:39:13;;;;;;;6.40;5.90;;;;;25.30;100313.00;;;;2096217;28;20208;-68
2023/09/11 02:40:14;;;;;;;6.63;6.03;;;;;25.30;100303.00;;;;2095324;28;21056;-68
2023/09/11 02:41:14;;;;;;;6.50;6.00;;;;;25.30;100298.00;;;;2085935;28;20224;-68
2023/09/11 02:42:14;;;;;;;6.80;6.20;;;;;25.30;100305.00;;;;2095323;28;20204;-68
2023/09/11 02:43:15;;;;;;;5.70;5.30;;;;;25.30;100302.00;;;;2096132;28;20208;-68
2023/09/11 02:44:15;;;;;;;5.13;4.73;;;;;25.30;100304.00;;;;2095347;28;20220;-68
2023/09/11 02:45:15;;;;;;;6.50;6.00;;;;;25.30;100301.00;;;;2100519;28;20203;-68
2023/09/11 02:46:16;;;;;;;6.30;5.80;;;;;25.30;100305.00;;;;2087671;28;20219;-68
2023/09/11 02:47:16;;;;;;;6.30;5.80;;;;;25.30;100308.00;;;;2095053;28;20584;-67
2023/09/11 02:48:16;;;;;;;6.87;6.20;;;;;25.30;100302.00;;;;2095942;28;20212;-67
2023/09/11 02:49:18;;;;;;;6.40;5.80;;;;;25.30;100306.00;;;;2086462;28;20237;-67
2023/09/11 02:50:18;;;;;;;6.23;5.73;;;;;25.30;100313.00;;;;2093264;28;20201;-67
2023/09/11 02:51:19;;;;;;;6.20;5.70;;;;;25.30;100309.00;;;;2086540;28;20456;-67
2023/09/11 02:52:19;;;;;;;5.80;5.30;;;;;25.30;100300.00;;;;2094806;28;20220;-67
2023/09/11 02:53:19;;;;;;;6.63;6.03;;;;;25.30;100299.00;;;;2096064;28;20234;-67
2023/09/11 02:54:20;;;;;;;5.83;5.43;;;;;25.30;100294.00;;;;2094611;28;20224;-67
2023/09/11 02:55:20;;;;;;;6.20;5.67;;;;;25.20;100305.00;;;;2096562;28;20213;-67
2023/09/11 02:56:20;;;;;;;6.00;5.50;;;;;25.30;100296.00;;;;2084990;28;20213;-67
2023/09/11 02:57:21;;;;;;;6.47;5.87;;;;;25.20;100292.00;;;;2096111;28;20226;-68
2023/09/11 02:58:22;;;;;;;6.07;5.57;;;;;25.20;100303.00;;;;2095104;28;20208;-68
2023/09/11 02:59:22;;;;;;;5.90;5.50;;;;;25.30;100297.00;;;;2096327;28;20439;-68
2023/09/11 03:00:22;;;;;;;6.57;6.00;;;;;25.30;100289.00;;;;2096063;28;20211;-68
2023/09/11 03:01:23;;;;;;;6.63;6.03;;;;;25.30;100295.00;;;;2077237;28;20251;-68
2023/09/11 03:02:23;;;;;;;6.23;5.63;;;;;25.30;100294.00;;;;2087181;28;20209;-68
2023/09/11 03:03:23;;;;;;;6.10;5.60;;;;;25.20;100290.00;;;;2101805;28;20699;-68
2023/09/11 03:04:24;;;;;;;6.17;5.57;;;;;25.30;100295.00;;;;2095652;28;20729;-68
2023/09/11 03:05:24;;;;;;;5.83;5.40;;;;;25.30;100289.00;;;;2096065;28;20208;-68
2023/09/11 03:06:24;;;;;;;6.23;5.73;;;;;25.30;100291.00;;;;2090905;28;20207;-68
2023/09/11 03:07:25;;;;;;;7.53;6.00;;;;;25.30;100283.00;;;;2095123;28;20211;-68
2023/09/11 03:08:25;;;;;;;6.53;6.03;;;;;25.20;100288.00;;;;2095759;28;20235;-68
2023/09/11 03:09:26;;;;;;;6.07;5.57;;;;;25.20;100281.00;;;;2094956;28;20216;-68
2023/09/11 03:10:27;;;;;;;6.20;5.70;;;;;25.20;100277.00;;;;2087111;28;20784;-68
2023/09/11 03:11:28;;;;;;;6.50;6.00;;;;;25.30;100282.00;;;;2080917;28;20462;-68
2023/09/11 03:12:29;;;;;;;5.90;5.43;;;;;25.30;100279.00;;;;2095808;28;20446;-68
2023/09/11 03:13:29;;;;;;;6.70;6.20;;;;;25.30;100270.00;;;;2096898;28;20212;-68
2023/09/11 03:14:30;;;;;;;6.17;5.57;;;;;25.20;100279.00;;;;2096824;28;20450;-68
2023/09/11 03:15:30;;;;;;;6.30;5.80;;;;;25.30;100283.00;;;;2097302;28;20230;-68
2023/09/11 03:16:30;;;;;;;5.80;5.37;;;;;25.30;100281.00;;;;2076497;28;20216;-68
2023/09/11 03:17:31;;;;;;;6.40;5.80;;;;;25.30;100279.00;;;;2088734;28;20284;-68
2023/09/11 03:18:31;;;;;;;6.00;5.50;;;;;25.30;100280.00;;;;2091097;28;20204;-68
2023/09/11 03:19:34;;;;;;;6.20;5.73;;;;;25.30;100284.00;;;;2097408;28;20212;-68
2023/09/11 03:20:35;;;;;;;6.03;5.63;;;;;25.30;100280.00;;;;2087126;28;21295;-68
2023/09/11 03:21:35;;;;;;;6.10;5.60;;;;;25.20;100281.00;;;;2095434;28;20529;-68
2023/09/11 03:22:35;;;;;;;5.80;5.30;;;;;25.30;100285.00;;;;2097625;28;20373;-68
2023/09/11 03:23:36;;;;;;;6.43;5.93;;;;;25.20;100272.00;;;;2096268;28;20215;-68
2023/09/11 03:24:36;;;;;;;6.90;6.20;;;;;25.20;100272.00;;;;2097692;28;20219;-68
2023/09/11 03:25:37;;;;;;;6.10;5.60;;;;;25.20;100282.00;;;;2088462;28;20676;-68
2023/09/11 03:26:38;;;;;;;6.93;6.33;;;;;25.20;100274.00;;;;2097507;28;20350;-68
2023/09/11 03:27:38;;;;;;;5.47;5.07;;;;;25.20;100275.00;;;;2097546;28;20888;-68
2023/09/11 03:28:38;;;;;;;5.60;5.20;;;;;25.20;100280.00;;;;2096775;28;20207;-68
2023/09/11 03:29:39;;;;;;;5.90;5.50;;;;;25.20;100277.00;;;;2097741;28;20293;-68
2023/09/11 03:30:39;;;;;;;6.43;5.83;;;;;25.20;100274.00;;;;2086216;28;20212;-68
2023/09/11 03:31:39;;;;;;;6.57;6.07;;;;;25.20;100276.00;;;;2097778;28;20222;-68
2023/09/11 03:32:40;;;;;;;6.70;5.73;;;;;25.20;100270.00;;;;2098369;28;20212;-68
2023/09/11 03:33:40;;;;;;;5.90;5.50;;;;;25.30;100274.00;;;;2096154;28;21705;-68
2023/09/11 03:34:41;;;;;;;6.60;6.10;;;;;25.30;100279.00;;;;2097628;28;20212;-68
2023/09/11 03:35:41;;;;;;;5.83;5.43;;;;;25.30;100280.00;;;;2086150;28;20661;-68
2023/09/11 03:36:41;;;;;;;6.90;6.30;;;;;25.20;100283.00;;;;2098364;28;20951;-68
2023/09/11 03:37:42;;;;;;;6.20;5.70;;;;;25.30;100283.00;;;;2102189;28;20214;-68
2023/09/11 03:38:42;;;;;;;6.90;6.40;;;;;25.30;100279.00;;;;2097484;28;20208;-68
2023/09/11 03:39:43;;;;;;;5.73;5.23;;;;;25.30;100277.00;;;;2097718;28;20220;-68
2023/09/11 03:40:45;;;;;;;6.13;5.70;;;;;25.20;100272.00;;;;2086052;28;20215;-68
2023/09/11 03:41:45;;;;;;;6.93;6.33;;;;;25.30;100274.00;;;;2089110;28;20235;-68
2023/09/11 03:42:45;;;;;;;6.30;5.80;;;;;25.30;100274.00;;;;2086953;28;20451;-68
2023/09/11 03:43:46;;;;;;;7.10;6.13;;;;;25.30;100274.00;;;;2097448;28;20719;-68
2023/09/11 03:44:46;;;;;;;6.73;6.00;;;;;25.20;100272.00;;;;2087770;28;20215;-68
2023/09/11 03:45:47;;;;;;;6.47;5.97;;;;;25.30;100277.00;;;;2078509;28;20232;-68
2023/09/11 03:46:47;;;;;;;6.40;5.80;;;;;25.30;100272.00;;;;2099129;28;20199;-68
2023/09/11 03:47:47;;;;;;;5.93;5.43;;;;;25.30;100275.00;;;;2096246;28;20257;-68
2023/09/11 03:48:48;;;;;;;5.77;5.37;;;;;25.20;100271.00;;;;2102259;28;20229;-68
2023/09/11 03:49:48;;;;;;;5.60;5.20;;;;;25.20;100265.00;;;;2096420;28;20208;-68
2023/09/11 03:50:49;;;;;;;6.70;6.17;;;;;25.20;100268.00;;;;2087399;28;20210;-68
2023/09/11 03:51:49;;;;;;;7.17;6.40;;;;;25.20;100267.00;;;;2099143;28;20211;-68
2023/09/11 03:52:50;;;;;;;6.20;5.70;;;;;25.20;100261.00;;;;2097481;28;20208;-68
2023/09/11 03:53:51;;;;;;;5.30;4.90;;;;;25.20;100252.00;;;;2095051;28;20208;-68
2023/09/11 03:54:51;;;;;;;5.63;5.13;;;;;25.20;100251.00;;;;2096794;28;20453;-68
2023/09/11 03:55:51;;;;;;;7.17;6.60;;;;;25.20;100251.00;;;;2087088;28;20239;-68
2023/09/11 03:56:52;;;;;;;6.20;5.70;;;;;25.20;100259.00;;;;2087645;28;20221;-68
2023/09/11 03:57:52;;;;;;;6.10;5.60;;;;;25.20;100255.00;;;;2087976;28;20220;-68
2023/09/11 03:58:52;;;;;;;6.10;5.60;;;;;25.20;100245.00;;;;2096602;28;20208;-68
2023/09/11 03:59:53;;;;;;;6.20;5.67;;;;;25.20;100252.00;;;;2098952;28;20243;-68
2023/09/11 04:00:54;;;;;;;6.40;5.90;;;;;25.20;100249.00;;;;2087362;28;20251;-68
2023/09/11 04:01:54;;;;;;;6.03;5.53;;;;;25.20;100249.00;;;;2096423;28;20220;-68
2023/09/11 04:02:55;;;;;;;6.17;5.77;;;;;25.20;100250.00;;;;2099943;28;20489;-68
2023/09/11 04:03:55;;;;;;;5.90;5.50;;;;;25.20;100251.00;;;;2098949;28;20640;-68
2023/09/11 04:04:55;;;;;;;6.97;6.37;;;;;25.20;100249.00;;;;2097372;28;20208;-68
2023/09/11 04:05:56;;;;;;;6.93;6.33;;;;;25.20;100250.00;;;;2085638;28;20224;-68
2023/09/11 04:06:56;;;;;;;6.27;5.77;;;;;25.20;100251.00;;;;2097323;28;20254;-68
2023/09/11 04:07:56;;;;;;;5.63;5.23;;;;;25.20;100247.00;;;;2098106;28;20247;-68
2023/09/11 04:08:57;;;;;;;5.80;5.30;;;;;25.20;100251.00;;;;2095846;28;20200;-68
2023/09/11 04:09:57;;;;;;;6.37;5.87;;;;;25.20;100250.00;;;;2097047;28;20669;-68
2023/09/11 04:10:58;;;;;;;5.63;5.20;;;;;25.20;100250.00;;;;2088560;28;20274;-68
2023/09/11 04:12:00;;;;;;;6.40;5.90;;;;;25.20;100250.00;;;;2102243;28;20209;-68
2023/09/11 04:13:00;;;;;;;6.10;5.70;;;;;25.20;100249.00;;;;2096115;28;20295;-68
2023/09/11 04:14:01;;;;;;;6.07;5.57;;;;;25.20;100246.00;;;;2096752;28;20454;-68
2023/09/11 04:15:01;;;;;;;5.80;5.40;;;;;25.20;100249.00;;;;2097084;28;20243;-68
2023/09/11 04:16:01;;;;;;;6.70;6.00;;;;;25.30;100243.00;;;;2085733;28;20216;-68
2023/09/11 04:17:02;;;;;;;5.83;5.33;;;;;25.20;100245.00;;;;2098978;28;20217;-68
2023/09/11 04:18:02;;;;;;;6.10;5.60;;;;;25.20;100242.00;;;;2096636;28;20259;-68
2023/09/11 04:19:02;;;;;;;6.30;5.80;;;;;25.20;100246.00;;;;2097153;28;20239;-68
2023/09/11 04:20:03;;;;;;;6.50;5.93;;;;;25.30;100244.00;;;;2087372;28;20780;-68
2023/09/11 04:21:03;;;;;;;6.37;5.80;;;;;25.20;100242.00;;;;2078026;28;20217;-68
2023/09/11 04:22:04;;;;;;;5.90;5.40;;;;;25.30;100237.00;;;;2097043;28;20216;-68
2023/09/11 04:23:05;;;;;;;5.97;5.57;;;;;25.20;100240.00;;;;2093002;28;20220;-68
2023/09/11 04:24:12;;;;;;;5.90;5.40;;;;;25.30;100239.00;;;;2096800;28;20453;-68
2023/09/11 04:25:12;;;;;;;6.20;5.70;;;;;25.20;100248.00;;;;2096057;28;20815;-68
2023/09/11 04:26:12;;;;;;;5.87;5.37;;;;;25.30;100241.00;;;;2086990;28;20507;-68
2023/09/11 04:27:13;;;;;;;6.40;5.90;;;;;25.30;100242.00;;;;2096153;28;20247;-68
2023/09/11 04:28:13;;;;;;;5.73;5.23;;;;;25.30;100246.00;;;;2097051;28;20208;-68
2023/09/11 04:29:14;;;;;;;6.10;5.60;;;;;25.30;100245.00;;;;2097201;28;20216;-68
2023/09/11 04:30:14;;;;;;;6.10;5.63;;;;;25.30;100239.00;;;;2097173;28;20218;-68
2023/09/11 04:31:15;;;;;;;6.50;6.00;;;;;25.20;100242.00;;;;2086962;28;20224;-67
2023/09/11 04:32:17;;;;;;;6.20;5.70;;;;;25.30;100250.00;;;;2097020;28;20270;-67
2023/09/11 04:33:18;;;;;;;6.18;5.68;;;;;25.20;100240.00;;;;2096927;28;20215;-67
2023/09/11 04:34:18;;;;;;;6.50;6.00;;;;;25.20;100246.00;;;;2097586;28;20592;-67
2023/09/11 04:35:18;;;;;;;5.40;5.00;;;;;25.20;100243.00;;;;2099671;28;20211;-67
2023/09/11 04:36:19;;;;;;;6.33;5.83;;;;;25.20;100244.00;;;;2088050;28;20231;-67
2023/09/11 04:37:19;;;;;;;6.50;6.00;;;;;25.20;100243.00;;;;2096975;28;20244;-67
2023/09/11 04:38:20;;;;;;;6.10;5.60;;;;;25.20;100248.00;;;;2097960;28;20212;-67
2023/09/11 04:39:22;;;;;;;5.90;5.50;;;;;25.20;100240.00;;;;2097028;28;20433;-68
2023/09/11 04:40:22;;;;;;;5.83;5.43;;;;;25.20;100241.00;;;;2088322;28;20606;-68
2023/09/11 04:41:22;;;;;;;5.20;4.80;;;;;25.20;100243.00;;;;2077606;28;20761;-68
2023/09/11 04:42:23;;;;;;;5.60;5.20;;;;;25.20;100241.00;;;;2097044;28;20218;-68
2023/09/11 04:43:23;;;;;;;6.33;5.83;;;;;25.20;100237.00;;;;2096248;28;20224;-68
2023/09/11 04:44:24;;;;;;;6.70;5.30;;;;;25.20;100239.00;;;;2097266;28;20208;-68
2023/09/11 04:45:24;;;;;;;5.20;4.80;;;;;25.20;100235.00;;;;2103139;28;20738;-68
2023/09/11 04:46:24;;;;;;;6.13;5.53;;;;;25.20;100233.00;;;;2086508;28;20216;-68
2023/09/11 04:47:26;;;;;;;5.80;5.30;;;;;25.20;100233.00;;;;2097173;28;20219;-68
2023/09/11 04:48:26;;;;;;;6.23;5.63;;;;;25.20;100236.00;;;;2096283;28;20213;-68
2023/09/11 04:49:26;;;;;;;6.17;5.67;;;;;25.20;100230.00;;;;2096782;28;20454;-68
2023/09/11 04:50:27;;;;;;;6.10;5.60;;;;;25.20;100235.00;;;;2097040;28;20212;-68
2023/09/11 04:51:27;;;;;;;6.00;5.50;;;;;25.20;100237.00;;;;2086871;28;20215;-68
2023/09/11 04:52:27;;;;;;;6.63;6.03;;;;;25.20;100235.00;;;;2097112;28;20227;-68
2023/09/11 04:53:28;;;;;;;5.87;5.43;;;;;25.20;100239.00;;;;2095704;28;20220;-68
2023/09/11 04:54:28;;;;;;;5.77;5.33;;;;;25.20;100237.00;;;;2097160;28;20251;-68
2023/09/11 04:55:28;;;;;;;5.73;5.33;;;;;25.20;100233.00;;;;2097802;28;20205;-68
2023/09/11 04:56:28;;;;;;;5.50;5.10;;;;;25.20;100238.00;;;;2090527;28;20223;-68
2023/09/11 04:57:29;;;;;;;5.47;5.03;;;;;25.20;100231.00;;;;2097280;28;20225;-68
2023/09/11 04:58:29;;;;;;;5.97;5.47;;;;;25.20;100234.00;;;;2096765;28;20223;-68
2023/09/11 04:59:30;;;;;;;5.87;5.30;;;;;25.20;100249.00;;;;2096840;28;20228;-68
2023/09/11 05:00:30;;;;;;;6.90;6.33;;;;;25.20;100233.00;;;;2095876;28;20721;-68
2023/09/11 05:01:30;;;;;;;6.47;5.97;;;;;25.20;100231.00;;;;2085972;28;20265;-68
2023/09/11 05:02:30;;;;;;;6.57;5.50;;;;;25.20;100235.00;;;;2083380;28;20214;-68